createdAt,value
2022-12-18T00:00:05.007Z,89.60
2022-12-18T00:02:35.141Z,89.67
2022-12-18T00:05:06.567Z,89.67
2022-12-18T00:07:34.284Z,89.18
2022-12-18T00:10:02.360Z,88.81
2022-12-18T00:12:30.399Z,88.64
2022-12-18T00:14:58.231Z,88.30
2022-12-18T00:17:26.088Z,88.58
2022-12-18T00:19:54.073Z,88.13
2022-12-18T00:22:21.716Z,87.99
2022-12-18T00:24:49.519Z,88.10
2022-12-18T00:27:17.359Z,88.13
2022-12-18T00:29:44.847Z,87.96
2022-12-18T00:32:12.668Z,87.82
2022-12-18T00:34:40.634Z,88.00
2022-12-18T00:37:09.509Z,87.92
2022-12-18T00:39:37.253Z,87.81
2022-12-18T00:42:23.744Z,87.83
2022-12-18T00:44:51.413Z,87.75
2022-12-18T00:47:19.314Z,87.85
2022-12-18T00:49:47.026Z,87.40
2022-12-18T00:52:14.576Z,87.34
2022-12-18T00:54:42.147Z,87.29
2022-12-18T00:57:11.921Z,87.31
2022-12-18T00:59:39.791Z,87.56
2022-12-18T01:02:07.484Z,87.31
2022-12-18T01:04:35.421Z,86.97
2022-12-18T01:07:03.465Z,87.10
2022-12-18T01:09:31.513Z,87.16
2022-12-18T01:11:59.158Z,86.93
2022-12-18T01:14:27.115Z,86.72
2022-12-18T01:16:55.080Z,86.90
2022-12-18T01:19:22.823Z,86.81
2022-12-18T01:21:50.880Z,86.77
2022-12-18T01:24:18.755Z,87.00
2022-12-18T01:26:46.824Z,86.73
2022-12-18T01:29:15.380Z,86.92
2022-12-18T01:31:43.358Z,87.18
2022-12-18T01:34:11.251Z,87.04
2022-12-18T01:36:40.596Z,87.17
2022-12-18T01:39:14.936Z,86.82
2022-12-18T01:42:01.312Z,86.75
2022-12-18T01:45:11.843Z,86.68
2022-12-18T01:47:47.665Z,86.86
2022-12-18T01:50:23.266Z,86.68
2022-12-18T01:53:07.532Z,86.83
2022-12-18T01:55:49.161Z,86.81
2022-12-18T01:58:18.083Z,86.78
2022-12-18T02:00:46.796Z,86.77
2022-12-18T02:03:15.100Z,86.05
2022-12-18T02:05:55.017Z,86.23
2022-12-18T02:08:57.827Z,86.46
2022-12-18T02:11:48.669Z,86.57
2022-12-18T02:14:22.273Z,85.94
2022-12-18T02:16:55.201Z,85.88
2022-12-18T02:20:00.112Z,85.96
2022-12-18T02:22:49.990Z,85.26
2022-12-18T02:25:31.944Z,85.37
2022-12-18T02:28:02.953Z,85.46
2022-12-18T02:30:34.486Z,85.37
2022-12-18T02:33:05.260Z,85.49
2022-12-18T02:35:35.866Z,85.47
2022-12-18T02:38:05.651Z,85.10
2022-12-18T02:40:37.218Z,85.05
2022-12-18T02:43:11.424Z,85.16
2022-12-18T02:45:55.520Z,84.82
2022-12-18T02:48:28.667Z,84.97
2022-12-18T02:51:13.737Z,85.20
2022-12-18T02:53:51.591Z,85.14
2022-12-18T02:56:42.368Z,85.24
2022-12-18T02:59:19.256Z,85.32
2022-12-18T03:02:00.116Z,85.03
2022-12-18T03:04:39.297Z,84.70
2022-12-18T03:07:12.326Z,84.92
2022-12-18T03:09:45.134Z,85.11
2022-12-18T03:12:23.984Z,85.08
2022-12-18T03:15:17.479Z,85.03
2022-12-18T03:17:48.602Z,85.20
2022-12-18T03:20:20.796Z,84.90
2022-12-18T03:22:53.543Z,84.82
2022-12-18T03:25:22.602Z,84.88
2022-12-18T03:27:57.143Z,84.34
2022-12-18T03:30:27.500Z,84.62
2022-12-18T03:33:03.479Z,84.27
2022-12-18T03:35:36.154Z,84.57
2022-12-18T03:38:04.555Z,84.54
2022-12-18T03:40:47.811Z,84.55
2022-12-18T03:43:45.473Z,84.80
2022-12-18T03:46:24.467Z,84.89
2022-12-18T03:49:04.403Z,85.03
2022-12-18T03:51:53.641Z,84.96
2022-12-18T03:54:22.590Z,85.06
2022-12-18T03:57:06.267Z,85.00
2022-12-18T03:59:36.664Z,84.86
2022-12-18T04:02:08.176Z,84.87
2022-12-18T04:04:39.045Z,84.66
2022-12-18T04:07:07.860Z,84.90
2022-12-18T04:09:37.583Z,84.89
2022-12-18T04:12:05.520Z,85.09
2022-12-18T04:14:35.251Z,85.09
2022-12-18T04:17:04.198Z,85.11
2022-12-18T04:19:32.632Z,85.03
2022-12-18T04:22:00.643Z,85.23
2022-12-18T04:24:29.176Z,85.28
2022-12-18T04:27:05.161Z,85.25
2022-12-18T04:29:35.940Z,85.20
2022-12-18T04:32:04.004Z,85.11
2022-12-18T04:34:32.200Z,85.29
2022-12-18T04:36:59.851Z,85.11
2022-12-18T04:39:27.751Z,85.10
2022-12-18T04:42:01.456Z,85.12
2022-12-18T04:44:29.268Z,85.16
2022-12-18T04:46:56.999Z,85.12
2022-12-18T04:49:24.968Z,85.08
2022-12-18T04:51:53.553Z,84.80
2022-12-18T04:54:21.432Z,84.87
2022-12-18T04:56:49.340Z,84.60
2022-12-18T04:59:17.159Z,84.82
2022-12-18T05:01:44.826Z,84.77
2022-12-18T05:04:12.550Z,84.83
2022-12-18T05:06:40.353Z,85.01
2022-12-18T05:09:10.089Z,85.01
2022-12-18T05:11:38.142Z,85.13
2022-12-18T05:14:06.101Z,85.13
2022-12-18T05:16:34.348Z,85.10
2022-12-18T05:19:02.103Z,85.20
2022-12-18T05:21:29.813Z,85.07
2022-12-18T05:23:57.485Z,85.13
2022-12-18T05:26:25.653Z,85.03
2022-12-18T05:28:53.275Z,85.08
2022-12-18T05:31:21.113Z,84.94
2022-12-18T05:33:51.313Z,85.10
2022-12-18T05:36:18.997Z,85.24
2022-12-18T05:38:46.640Z,85.40
2022-12-18T05:41:15.343Z,85.47
2022-12-18T05:43:43.712Z,85.34
2022-12-18T05:46:18.252Z,85.35
2022-12-18T05:48:46.206Z,85.48
2022-12-18T05:51:17.311Z,85.59
2022-12-18T05:53:45.678Z,85.71
2022-12-18T05:56:21.475Z,85.62
2022-12-18T05:58:54.515Z,85.59
2022-12-18T06:01:26.783Z,85.61
2022-12-18T06:03:55.435Z,85.68
2022-12-18T06:06:26.756Z,85.60
2022-12-18T06:08:55.841Z,85.68
2022-12-18T06:11:26.643Z,85.87
2022-12-18T06:13:58.738Z,85.87
2022-12-18T06:16:26.308Z,85.75
2022-12-18T06:18:56.504Z,85.83
2022-12-18T06:21:24.286Z,85.77
2022-12-18T06:23:51.974Z,85.79
2022-12-18T06:26:24.628Z,85.85
2022-12-18T06:28:49.454Z,85.83
2022-12-18T06:31:17.366Z,85.77
2022-12-18T06:33:45.472Z,85.37
2022-12-18T06:36:14.732Z,85.29
2022-12-18T06:38:44.284Z,85.43
2022-12-18T06:41:15.171Z,85.50
2022-12-18T06:43:43.720Z,85.55
2022-12-18T06:46:12.668Z,85.27
2022-12-18T06:48:40.670Z,85.41
2022-12-18T06:51:08.551Z,85.32
2022-12-18T06:53:36.640Z,85.26
2022-12-18T06:56:10.425Z,85.27
2022-12-18T06:58:36.945Z,85.37
2022-12-18T07:01:09.079Z,85.25
2022-12-18T07:03:40.486Z,85.33
2022-12-18T07:06:18.870Z,85.51
2022-12-18T07:08:47.444Z,85.80
2022-12-18T07:11:17.020Z,86.04
2022-12-18T07:13:47.385Z,86.19
2022-12-18T07:16:24.744Z,86.27
2022-12-18T07:18:48.666Z,85.96
2022-12-18T07:21:19.541Z,85.52
2022-12-18T07:23:48.411Z,84.88
2022-12-18T07:26:19.088Z,84.02
2022-12-18T07:28:47.428Z,83.57
2022-12-18T07:31:20.321Z,82.82
2022-12-18T07:33:52.176Z,82.73
2022-12-18T07:36:25.090Z,82.77
2022-12-18T07:38:53.903Z,81.38
2022-12-18T07:41:21.947Z,81.91
2022-12-18T07:43:54.634Z,81.57
2022-12-18T07:46:23.000Z,81.28
2022-12-18T07:48:50.815Z,80.98
2022-12-18T07:51:20.516Z,80.31
2022-12-18T07:53:49.289Z,80.50
2022-12-18T07:56:27.801Z,81.00
2022-12-18T07:58:48.104Z,81.18
2022-12-18T08:01:16.450Z,81.51
2022-12-18T08:03:45.245Z,81.36
2022-12-18T08:06:13.042Z,80.37
2022-12-18T08:08:42.051Z,80.91
2022-12-18T08:11:14.048Z,81.03
2022-12-18T08:13:42.169Z,80.71
2022-12-18T08:16:10.283Z,81.21
2022-12-18T08:18:39.084Z,81.71
2022-12-18T08:21:15.695Z,81.40
2022-12-18T08:23:44.300Z,81.21
2022-12-18T08:26:12.798Z,81.72
2022-12-18T08:28:42.351Z,82.46
2022-12-18T08:31:10.882Z,82.59
2022-12-18T08:33:41.044Z,81.79
2022-12-18T08:36:11.058Z,80.32
2022-12-18T08:38:40.877Z,79.92
2022-12-18T08:41:13.714Z,78.68
2022-12-18T08:44:00.830Z,76.34
2022-12-18T08:46:39.047Z,77.60
2022-12-18T08:49:11.382Z,78.59
2022-12-18T08:51:39.761Z,79.10
2022-12-18T08:54:08.320Z,78.89
2022-12-18T08:56:39.943Z,78.38
2022-12-18T08:59:13.170Z,77.89
2022-12-18T09:01:39.298Z,77.33
2022-12-18T09:04:08.815Z,77.96
2022-12-18T09:06:37.407Z,77.80
2022-12-18T09:09:06.833Z,77.55
2022-12-18T09:11:38.239Z,77.34
2022-12-18T09:14:06.377Z,76.70
2022-12-18T09:16:35.514Z,76.48
2022-12-18T09:19:05.390Z,76.33
2022-12-18T09:21:41.213Z,76.81
2022-12-18T09:24:13.219Z,77.42
2022-12-18T09:26:41.253Z,77.23
2022-12-18T09:29:10.771Z,77.27
2022-12-18T09:31:39.366Z,77.29
2022-12-18T09:34:07.406Z,77.31
2022-12-18T09:36:35.213Z,77.09
2022-12-18T09:39:08.258Z,77.07
2022-12-18T09:41:50.554Z,75.60
2022-12-18T09:44:44.988Z,75.12
2022-12-18T09:47:29.496Z,75.51
2022-12-18T09:50:02.077Z,74.81
2022-12-18T09:52:44.487Z,74.68
2022-12-18T09:55:38.619Z,74.59
2022-12-18T09:58:30.171Z,74.77
2022-12-18T10:00:59.506Z,74.32
2022-12-18T10:03:30.601Z,74.49
2022-12-18T10:06:09.931Z,74.26
2022-12-18T10:08:49.370Z,73.91
2022-12-18T10:11:34.760Z,73.02
2022-12-18T10:14:23.160Z,73.77
2022-12-18T10:17:06.196Z,74.23
2022-12-18T10:20:06.494Z,74.88
2022-12-18T10:22:45.205Z,74.77
2022-12-18T10:25:33.652Z,75.13
2022-12-18T10:28:11.902Z,74.94
2022-12-18T10:30:41.709Z,75.28
2022-12-18T10:33:23.044Z,75.71
2022-12-18T10:35:52.933Z,75.81
2022-12-18T10:38:25.552Z,75.75
2022-12-18T10:41:12.343Z,74.91
2022-12-18T10:43:41.489Z,74.54
2022-12-18T10:46:16.443Z,74.92
2022-12-18T10:48:58.571Z,75.30
2022-12-18T10:51:34.303Z,75.36
2022-12-18T10:54:18.410Z,74.85
2022-12-18T10:56:46.392Z,74.61
2022-12-18T10:59:18.088Z,74.10
2022-12-18T11:01:54.393Z,74.26
2022-12-18T11:04:31.925Z,74.91
2022-12-18T11:07:09.221Z,74.88
2022-12-18T11:09:39.907Z,75.16
2022-12-18T11:12:22.708Z,75.36
2022-12-18T11:14:53.324Z,75.22
2022-12-18T11:17:35.264Z,75.51
2022-12-18T11:20:07.574Z,75.85
2022-12-18T11:22:39.093Z,76.04
2022-12-18T11:25:33.057Z,76.30
2022-12-18T11:28:01.230Z,76.19
2022-12-18T11:30:38.940Z,75.16
2022-12-18T11:33:21.306Z,75.36
2022-12-18T11:36:03.249Z,75.49
2022-12-18T11:38:38.169Z,75.53
2022-12-18T11:41:23.745Z,75.84
2022-12-18T11:44:02.010Z,75.87
2022-12-18T11:46:41.438Z,76.18
2022-12-18T11:49:32.621Z,76.50
2022-12-18T11:52:24.255Z,76.45
2022-12-18T11:54:53.759Z,76.43
2022-12-18T11:57:52.487Z,76.79
2022-12-18T12:00:21.953Z,76.46
2022-12-18T12:03:10.541Z,76.37
2022-12-18T12:06:14.548Z,76.76
2022-12-18T12:09:14.698Z,76.69
2022-12-18T12:11:59.088Z,76.95
2022-12-18T12:14:32.860Z,77.04
2022-12-18T12:17:21.277Z,76.98
2022-12-18T12:20:00.226Z,76.70
2022-12-18T12:23:04.979Z,76.19
2022-12-18T12:25:53.912Z,76.50
2022-12-18T12:28:38.013Z,76.47
2022-12-18T12:31:24.382Z,76.50
2022-12-18T12:34:06.599Z,76.03
2022-12-18T12:37:12.534Z,75.61
2022-12-18T12:39:47.042Z,75.93
2022-12-18T12:42:48.059Z,75.98
2022-12-18T12:45:24.926Z,75.38
2022-12-18T12:47:58.647Z,75.40
2022-12-18T12:50:27.040Z,75.19
2022-12-18T12:52:58.801Z,75.58
2022-12-18T12:55:30.457Z,75.43
2022-12-18T12:58:13.737Z,75.59
2022-12-18T13:00:57.335Z,75.01
2022-12-18T13:03:39.283Z,75.16
2022-12-18T13:06:16.278Z,75.36
2022-12-18T13:09:00.024Z,75.52
2022-12-18T13:12:00.634Z,75.64
2022-12-18T13:14:41.529Z,75.52
2022-12-18T13:17:22.255Z,75.70
2022-12-18T13:20:08.567Z,75.47
2022-12-18T13:22:47.498Z,75.42
2022-12-18T13:25:36.773Z,75.55
2022-12-18T13:28:13.152Z,75.60
2022-12-18T13:30:57.749Z,75.84
2022-12-18T13:33:50.760Z,75.68
2022-12-18T13:36:34.502Z,75.73
2022-12-18T13:39:27.685Z,75.88
2022-12-18T13:42:09.680Z,75.61
2022-12-18T13:44:41.619Z,75.75
2022-12-18T13:47:38.513Z,75.50
2022-12-18T13:50:25.313Z,75.43
2022-12-18T13:52:53.760Z,75.17
2022-12-18T13:55:22.873Z,75.13
2022-12-18T13:57:50.623Z,75.29
2022-12-18T14:00:31.429Z,75.07
2022-12-18T14:03:01.090Z,75.03
2022-12-18T14:05:33.368Z,75.28
2022-12-18T14:08:09.316Z,75.21
2022-12-18T14:10:49.270Z,75.36
2022-12-18T14:13:23.575Z,75.61
2022-12-18T14:15:51.788Z,75.73
2022-12-18T14:18:45.366Z,75.05
2022-12-18T14:21:28.740Z,75.12
2022-12-18T14:24:15.831Z,75.23
2022-12-18T14:26:47.011Z,75.30
2022-12-18T14:29:32.401Z,75.35
2022-12-18T14:32:19.149Z,75.29
2022-12-18T14:34:54.234Z,75.35
2022-12-18T14:37:27.506Z,75.49
2022-12-18T14:40:08.710Z,75.36
2022-12-18T14:42:31.519Z,75.39
2022-12-18T14:45:42.154Z,75.42
2022-12-18T14:48:22.833Z,75.28
2022-12-18T14:50:51.429Z,75.12
2022-12-18T14:53:50.520Z,74.93
2022-12-18T14:56:28.281Z,74.83
2022-12-18T14:59:05.891Z,74.38
2022-12-18T15:01:38.064Z,74.57
2022-12-18T15:04:27.440Z,74.24
2022-12-18T15:07:20.828Z,74.35
2022-12-18T15:10:18.181Z,74.50
2022-12-18T15:13:03.839Z,74.76
2022-12-18T15:15:40.842Z,74.82
2022-12-18T15:18:17.361Z,74.95
2022-12-18T15:20:50.663Z,74.70
2022-12-18T15:23:32.281Z,74.69
2022-12-18T15:26:09.973Z,74.64
2022-12-18T15:28:55.577Z,74.89
2022-12-18T15:31:38.368Z,74.99
2022-12-18T15:34:14.176Z,74.93
2022-12-18T15:36:42.091Z,75.08
2022-12-18T15:39:13.699Z,75.16
2022-12-18T15:41:43.299Z,75.01
2022-12-18T15:44:24.491Z,74.85
2022-12-18T15:46:52.021Z,74.93
2022-12-18T15:49:19.701Z,75.13
2022-12-18T15:51:53.103Z,75.13
2022-12-18T15:54:23.472Z,75.01
2022-12-18T15:57:09.599Z,74.88
2022-12-18T15:59:37.358Z,75.12
2022-12-18T16:02:10.816Z,75.21
2022-12-18T16:04:38.638Z,75.22
2022-12-18T16:07:17.529Z,75.17
2022-12-18T16:09:39.267Z,75.33
2022-12-18T16:12:11.211Z,75.31
2022-12-18T16:14:39.039Z,74.92
2022-12-18T16:17:10.364Z,75.06
2022-12-18T16:19:39.119Z,74.92
2022-12-18T16:22:10.670Z,75.09
2022-12-18T16:24:39.215Z,75.17
2022-12-18T16:27:08.352Z,75.30
2022-12-18T16:29:36.194Z,75.33
2022-12-18T16:32:04.689Z,75.37
2022-12-18T16:34:35.887Z,75.33
2022-12-18T16:37:08.135Z,75.28
2022-12-18T16:39:37.452Z,75.35
2022-12-18T16:42:12.422Z,75.34
2022-12-18T16:44:40.841Z,75.25
2022-12-18T16:47:10.133Z,75.25
2022-12-18T16:49:38.672Z,75.29
2022-12-18T16:52:07.559Z,75.37
2022-12-18T16:54:36.103Z,75.44
2022-12-18T16:57:09.584Z,75.58
2022-12-18T16:59:37.682Z,75.62
2022-12-18T17:02:07.162Z,75.67
2022-12-18T17:04:35.826Z,75.79
2022-12-18T17:07:04.243Z,75.88
2022-12-18T17:09:32.452Z,75.47
2022-12-18T17:12:04.250Z,75.34
2022-12-18T17:14:46.035Z,75.30
2022-12-18T17:17:21.251Z,75.55
2022-12-18T17:19:48.934Z,75.72
2022-12-18T17:22:17.194Z,75.81
2022-12-18T17:24:46.983Z,75.93
2022-12-18T17:27:15.385Z,76.07
2022-12-18T17:29:47.771Z,76.14
2022-12-18T17:32:12.888Z,75.61
2022-12-18T17:34:43.213Z,75.53
2022-12-18T17:37:12.221Z,75.77
2022-12-18T17:39:41.939Z,75.96
2022-12-18T17:42:15.237Z,76.04
2022-12-18T17:44:44.320Z,76.13
2022-12-18T17:47:14.403Z,76.07
2022-12-18T17:49:42.434Z,76.12
2022-12-18T17:52:10.398Z,76.01
2022-12-18T17:54:40.151Z,76.15
2022-12-18T17:57:07.772Z,76.23
2022-12-18T17:59:35.527Z,76.29
2022-12-18T18:02:09.180Z,76.36
2022-12-18T18:04:37.008Z,76.38
2022-12-18T18:07:05.628Z,76.38
2022-12-18T18:09:33.346Z,76.49
2022-12-18T18:12:19.085Z,76.53
2022-12-18T18:14:47.057Z,76.74
2022-12-18T18:17:14.957Z,76.72
2022-12-18T18:19:49.344Z,76.74
2022-12-18T18:22:15.354Z,76.86
2022-12-18T18:24:46.180Z,76.80
2022-12-18T18:27:14.498Z,76.80
2022-12-18T18:29:47.154Z,76.91
2022-12-18T18:32:14.952Z,76.95
2022-12-18T18:34:42.919Z,76.98
2022-12-18T18:37:11.844Z,77.05
2022-12-18T18:39:39.513Z,77.53
2022-12-18T18:42:10.034Z,77.61
2022-12-18T18:44:37.960Z,77.70
2022-12-18T18:47:06.971Z,77.74
2022-12-18T18:49:36.177Z,77.67
2022-12-18T18:52:04.479Z,77.88
2022-12-18T18:54:33.934Z,78.06
2022-12-18T18:57:20.122Z,78.18
2022-12-18T18:59:32.431Z,78.35
2022-12-18T19:02:04.689Z,78.36
2022-12-18T19:04:33.103Z,78.47
2022-12-18T19:07:01.454Z,78.45
2022-12-18T19:09:30.723Z,78.52
2022-12-18T19:12:17.012Z,78.68
2022-12-18T19:14:44.762Z,78.73
2022-12-18T19:17:14.764Z,78.70
2022-12-18T19:19:46.579Z,78.74
2022-12-18T19:22:20.959Z,78.69
2022-12-18T19:24:49.358Z,78.64
2022-12-18T19:27:17.794Z,78.57
2022-12-18T19:29:45.291Z,78.63
2022-12-18T19:32:13.282Z,78.60
2022-12-18T19:34:44.883Z,78.69
2022-12-18T19:37:14.183Z,78.67
2022-12-18T19:39:44.888Z,78.72
2022-12-18T19:42:12.725Z,78.76
2022-12-18T19:44:47.368Z,78.75
2022-12-18T19:47:15.199Z,78.83
2022-12-18T19:49:42.726Z,78.91
2022-12-18T19:52:10.986Z,78.84
2022-12-18T19:54:38.774Z,78.95
2022-12-18T19:57:08.062Z,79.09
2022-12-18T19:59:36.370Z,79.11
2022-12-18T20:02:23.169Z,79.36
2022-12-18T20:05:02.470Z,79.45
2022-12-18T20:07:41.512Z,79.38
2022-12-18T20:10:14.337Z,79.60
2022-12-18T20:12:44.678Z,79.85
2022-12-18T20:15:13.132Z,79.94
2022-12-18T20:17:43.452Z,80.28
2022-12-18T20:20:13.645Z,80.52
2022-12-18T20:22:46.384Z,80.54
2022-12-18T20:25:16.294Z,80.79
2022-12-18T20:27:49.430Z,80.79
2022-12-18T20:30:19.302Z,80.75
2022-12-18T20:32:53.632Z,80.78
2022-12-18T20:35:22.160Z,80.83
2022-12-18T20:37:50.843Z,80.63
2022-12-18T20:40:24.874Z,80.66
2022-12-18T20:42:56.640Z,80.54
2022-12-18T20:45:24.552Z,80.59
2022-12-18T20:48:00.769Z,80.62
2022-12-18T20:50:31.804Z,80.59
2022-12-18T20:53:04.238Z,80.74
2022-12-18T20:55:38.103Z,80.81
2022-12-18T20:58:15.135Z,80.81
2022-12-18T21:01:04.432Z,80.84
2022-12-18T21:03:38.568Z,80.78
2022-12-18T21:06:14.932Z,80.97
2022-12-18T21:08:47.561Z,81.00
2022-12-18T21:11:45.669Z,81.10
2022-12-18T21:14:22.623Z,81.04
2022-12-18T21:16:54.695Z,81.19
2022-12-18T21:19:27.107Z,81.20
2022-12-18T21:21:56.956Z,81.25
2022-12-18T21:24:28.209Z,81.30
2022-12-18T21:26:59.243Z,81.11
2022-12-18T21:29:28.428Z,81.07
2022-12-18T21:31:57.528Z,80.99
2022-12-18T21:34:29.188Z,81.02
2022-12-18T21:36:59.490Z,80.91
2022-12-18T21:39:31.113Z,80.92
2022-12-18T21:42:18.763Z,80.92
2022-12-18T21:44:50.482Z,80.96
2022-12-18T21:47:23.343Z,81.02
2022-12-18T21:49:53.019Z,81.18
2022-12-18T21:52:32.319Z,81.28
2022-12-18T21:54:52.381Z,81.35
2022-12-18T21:57:24.001Z,81.42
2022-12-18T21:59:51.920Z,81.41
2022-12-18T22:02:21.530Z,81.33
2022-12-18T22:04:49.555Z,81.41
2022-12-18T22:07:20.045Z,81.52
2022-12-18T22:09:49.490Z,81.57
2022-12-18T22:12:18.960Z,81.64
2022-12-18T22:14:46.377Z,81.49
2022-12-18T22:17:14.008Z,81.46
2022-12-18T22:19:43.670Z,81.41
2022-12-18T22:22:12.695Z,81.42
2022-12-18T22:24:40.541Z,81.30
2022-12-18T22:27:09.444Z,81.18
2022-12-18T22:29:56.007Z,81.23
2022-12-18T22:32:31.482Z,81.37
2022-12-18T22:34:53.355Z,81.43
2022-12-18T22:37:22.111Z,81.51
2022-12-18T22:39:50.185Z,81.59
2022-12-18T22:42:18.194Z,81.65
2022-12-18T22:44:45.818Z,81.64
2022-12-18T22:47:16.079Z,81.66
2022-12-18T22:49:43.736Z,81.59
2022-12-18T22:52:11.680Z,81.42
2022-12-18T22:54:40.278Z,81.35
2022-12-18T22:57:09.376Z,81.56
2022-12-18T22:59:37.338Z,81.66
2022-12-18T23:02:07.172Z,81.69
2022-12-18T23:04:36.833Z,81.74
2022-12-18T23:07:05.811Z,81.77
2022-12-18T23:09:34.283Z,81.85
2022-12-18T23:12:03.120Z,81.81
2022-12-18T23:14:31.994Z,81.87
2022-12-18T23:17:00.005Z,81.67
2022-12-18T23:19:27.790Z,81.73
2022-12-18T23:21:57.823Z,81.77
2022-12-18T23:24:26.387Z,81.87
2022-12-18T23:26:54.157Z,81.74
2022-12-18T23:29:21.819Z,81.72
2022-12-18T23:31:49.566Z,81.60
2022-12-18T23:34:17.485Z,81.73
2022-12-18T23:36:47.487Z,81.90
2022-12-18T23:39:29.112Z,81.84
2022-12-18T23:41:46.994Z,81.76
2022-12-18T23:44:14.761Z,81.67
2022-12-18T23:46:42.266Z,81.51
2022-12-18T23:49:12.140Z,81.81
2022-12-18T23:51:39.935Z,81.85
2022-12-18T23:54:08.543Z,81.92
2022-12-18T23:56:36.037Z,81.96
2022-12-18T23:59:03.904Z,81.99
